Time;durP1;ratioP1;P1;durP2;ratioP2;P2;SDS_P1;SDS_P2;PMS_P1;PMS_P2;Temp;Humidity;BMP_temperature;BMP_pressure;BME280_temperature;BME280_humidity;BME280_pressure;Samples;Min_cycle;Max_cycle;Signal;HPM_P1;HPM_P2
2022/03/30 00:00:19;;;;;;;20.80;16.13;;;11.30;79.00;;;;;;4969111;28;20216;-87
2022/03/30 00:02:44;;;;;;;23.53;17.07;;;11.30;80.70;;;;;;4972481;28;20556;-86
2022/03/30 00:05:10;;;;;;;22.63;16.23;;;11.20;80.60;;;;;;4978098;28;20615;-87
2022/03/30 00:07:36;;;;;;;26.97;16.73;;;11.20;81.00;;;;;;4969976;28;20189;-87
2022/03/30 00:10:04;;;;;;;23.33;16.87;;;11.20;81.40;;;;;;4960344;28;20460;-88
2022/03/30 00:12:29;;;;;;;23.03;15.30;;;11.10;81.10;;;;;;4957149;28;20440;-87
2022/03/30 00:14:56;;;;;;;20.07;15.10;;;11.20;80.90;;;;;;4958513;28;20973;-87
2022/03/30 00:17:22;;;;;;;23.77;16.27;;;11.20;80.60;;;;;;4962351;28;20475;-87
2022/03/30 00:19:47;;;;;;;23.73;17.80;;;11.20;80.80;;;;;;4964538;28;22761;-87
2022/03/30 00:22:13;;;;;;;24.80;16.00;;;11.20;80.20;;;;;;4969627;28;20221;-87
2022/03/30 00:24:39;;;;;;;24.63;16.93;;;11.20;81.10;;;;;;4953299;28;20535;-87
2022/03/30 00:27:06;;;;;;;26.73;17.40;;;11.20;80.50;;;;;;4950650;28;20185;-87
2022/03/30 00:29:32;;;;;;;21.90;17.60;;;11.20;82.00;;;;;;4995714;28;20454;-87
2022/03/30 00:31:58;;;;;;;22.53;17.27;;;11.30;80.60;;;;;;4967473;28;20611;-88
2022/03/30 00:34:24;;;;;;;24.77;17.53;;;11.30;80.60;;;;;;4955553;28;20486;-87
2022/03/30 00:36:49;;;;;;;23.70;16.20;;;11.20;80.60;;;;;;4965089;28;20192;-88
2022/03/30 00:39:17;;;;;;;19.93;15.67;;;11.10;80.70;;;;;;4977421;28;20655;-86
2022/03/30 00:41:43;;;;;;;21.33;15.10;;;11.10;81.20;;;;;;4970270;28;20401;-87
2022/03/30 00:44:11;;;;;;;20.50;15.30;;;11.10;81.50;;;;;;4980467;28;20444;-87
2022/03/30 00:46:37;;;;;;;20.50;15.53;;;11.10;81.80;;;;;;4975429;28;20204;-88
2022/03/30 00:49:04;;;;;;;24.57;15.10;;;11.20;82.00;;;;;;4982120;28;20930;-87
2022/03/30 00:51:30;;;;;;;22.30;16.20;;;11.30;81.90;;;;;;4966431;28;20193;-87
2022/03/30 00:53:55;;;;;;;26.60;16.33;;;11.30;81.90;;;;;;4960388;28;20691;-87
2022/03/30 00:56:21;;;;;;;25.13;15.97;;;11.20;83.30;;;;;;4978132;28;20427;-88
2022/03/30 00:58:47;;;;;;;21.90;17.70;;;11.20;85.00;;;;;;4980302;28;20221;-87
2022/03/30 01:01:12;;;;;;;19.47;15.50;;;11.10;84.80;;;;;;4982881;28;20272;-87
2022/03/30 01:03:38;;;;;;;20.17;16.13;;;11.20;84.30;;;;;;4987543;28;20181;-87
2022/03/30 01:06:03;;;;;;;21.07;15.13;;;11.20;84.30;;;;;;4976790;28;20223;-87
2022/03/30 01:08:29;;;;;;;20.93;15.37;;;11.10;84.30;;;;;;4974551;28;20280;-87
2022/03/30 01:10:55;;;;;;;19.83;15.03;;;11.10;84.70;;;;;;4968746;28;20192;-87
2022/03/30 01:13:21;;;;;;;20.83;14.90;;;11.10;84.30;;;;;;4988434;28;20212;-87
2022/03/30 01:15:47;;;;;;;22.63;16.47;;;11.20;84.50;;;;;;4988566;28;20472;-87
2022/03/30 01:18:12;;;;;;;24.43;16.57;;;11.10;85.40;;;;;;4993067;28;20220;-87
2022/03/30 01:20:38;;;;;;;25.27;16.87;;;11.00;86.50;;;;;;4988604;28;20181;-86
2022/03/30 01:23:04;;;;;;;23.17;15.87;;;11.00;86.20;;;;;;4984852;28;20200;-87
2022/03/30 01:25:29;;;;;;;25.37;15.80;;;10.80;88.60;;;;;;4986921;28;20299;-87
2022/03/30 01:27:55;;;;;;;21.20;15.23;;;10.90;88.40;;;;;;4991788;28;20209;-87
2022/03/30 01:33:07;;;;;;;22.50;16.10;;;10.80;89.80;;;;;;5008277;28;20195;-86
2022/03/30 01:35:34;;;;;;;22.50;15.60;;;10.90;89.20;;;;;;4986585;28;20914;-87
2022/03/30 01:38:00;;;;;;;23.10;17.33;;;10.80;89.60;;;;;;4985296;28;20566;-88
2022/03/30 01:40:26;;;;;;;21.77;16.53;;;10.80;89.70;;;;;;4988283;28;20447;-88
2022/03/30 01:42:52;;;;;;;20.07;16.17;;;10.80;90.30;;;;;;4993168;28;20452;-88
2022/03/30 01:45:17;;;;;;;21.90;14.57;;;10.90;90.00;;;;;;4986934;28;20208;-87
2022/03/30 01:47:58;;;;;;;24.23;15.50;;;10.90;89.70;;;;;;4988153;28;20502;-88
2022/03/30 01:50:25;;;;;;;23.27;15.90;;;11.00;90.00;;;;;;4988652;28;20189;-88
2022/03/30 01:52:51;;;;;;;19.00;14.33;;;11.00;89.90;;;;;;4984978;28;20443;-87
2022/03/30 01:55:17;;;;;;;18.57;14.40;;;10.90;90.10;;;;;;4983594;28;20482;-88
2022/03/30 01:57:43;;;;;;;22.80;15.67;;;10.80;90.30;;;;;;4977185;28;20571;-88
2022/03/30 02:00:11;;;;;;;27.77;16.47;;;10.80;90.70;;;;;;4978803;28;21103;-87
2022/03/30 02:02:37;;;;;;;26.40;14.67;;;10.70;90.70;;;;;;4986000;28;20185;-88
2022/03/30 02:05:04;;;;;;;20.70;15.30;;;10.70;90.80;;;;;;4984719;28;20530;-87
2022/03/30 02:07:29;;;;;;;20.30;15.00;;;10.70;90.80;;;;;;4983993;28;20449;-87
2022/03/30 02:10:07;;;;;;;22.90;14.83;;;10.70;90.80;;;;;;4983296;28;20437;-87
2022/03/30 02:12:38;;;;;;;23.53;14.03;;;10.70;91.20;;;;;;4982936;28;20544;-88
2022/03/30 02:15:05;;;;;;;23.00;16.53;;;10.70;91.20;;;;;;5000230;28;20511;-88
2022/03/30 02:17:32;;;;;;;20.63;14.93;;;10.60;91.80;;;;;;4985340;28;20491;-87
2022/03/30 02:20:04;;;;;;;21.70;14.90;;;10.60;92.30;;;;;;4993045;28;20945;-87
2022/03/30 02:22:29;;;;;;;23.80;15.70;;;10.50;92.70;;;;;;4983165;28;20961;-87
2022/03/30 02:24:55;;;;;;;22.07;14.90;;;10.50;92.80;;;;;;4981673;28;20456;-88
2022/03/30 02:27:22;;;;;;;27.13;15.23;;;10.50;92.70;;;;;;4975572;28;20197;-87
2022/03/30 02:29:49;;;;;;;22.63;14.73;;;10.50;92.60;;;;;;4977062;28;20694;-88
2022/03/30 02:32:17;;;;;;;18.27;13.27;;;10.60;93.20;;;;;;4987635;28;20463;-87
2022/03/30 02:34:43;;;;;;;20.47;16.27;;;10.50;92.90;;;;;;4985646;28;20440;-87
2022/03/30 02:37:09;;;;;;;23.17;16.27;;;10.60;92.90;;;;;;4981492;28;21176;-87
2022/03/30 02:39:35;;;;;;;21.60;16.43;;;10.50;92.60;;;;;;4975204;28;20458;-87
2022/03/30 02:42:01;;;;;;;19.90;15.87;;;10.50;92.80;;;;;;4973701;28;20452;-87
2022/03/30 02:44:27;;;;;;;19.70;14.50;;;10.40;92.90;;;;;;4978251;28;20446;-87
2022/03/30 02:46:52;;;;;;;24.20;15.97;;;10.40;93.10;;;;;;4976231;28;20662;-88
2022/03/30 02:49:18;;;;;;;18.97;14.80;;;10.30;93.50;;;;;;4972237;28;20444;-87
2022/03/30 02:51:44;;;;;;;19.03;14.37;;;10.30;94.40;;;;;;4972883;28;20220;-87
2022/03/30 02:54:09;;;;;;;22.83;15.40;;;10.30;93.90;;;;;;4976442;28;20546;-88
2022/03/30 02:56:37;;;;;;;21.70;14.67;;;10.40;93.70;;;;;;4978311;28;20195;-88
2022/03/30 02:59:06;;;;;;;20.20;16.30;;;10.50;93.50;;;;;;4984873;28;20186;-87
2022/03/30 03:01:32;;;;;;;23.47;16.13;;;10.50;93.20;;;;;;4985882;28;20448;-87
2022/03/30 03:04:00;;;;;;;20.00;15.20;;;10.50;93.30;;;;;;4987662;28;20795;-87
2022/03/30 03:06:25;;;;;;;21.00;15.27;;;10.60;93.10;;;;;;4971471;28;20455;-86
2022/03/30 03:08:51;;;;;;;21.23;15.07;;;10.70;92.70;;;;;;4977698;28;20193;-86
2022/03/30 03:11:17;;;;;;;21.23;15.20;;;10.60;92.80;;;;;;4974186;28;20204;-86
2022/03/30 03:13:43;;;;;;;22.53;15.47;;;10.50;93.10;;;;;;4972531;28;20193;-87
2022/03/30 03:16:10;;;;;;;28.17;14.63;;;10.50;92.60;;;;;;4978632;28;20447;-86
2022/03/30 03:18:38;;;;;;;20.97;14.30;;;10.50;92.60;;;;;;4976032;28;20269;-87
2022/03/30 03:21:04;;;;;;;24.27;16.07;;;10.50;92.80;;;;;;4973007;28;20437;-87
2022/03/30 03:23:30;;;;;;;21.93;14.33;;;10.50;92.80;;;;;;4977712;28;20797;-87
2022/03/30 03:25:55;;;;;;;20.43;14.80;;;10.50;92.80;;;;;;4979061;28;21722;-87
2022/03/30 03:28:21;;;;;;;23.50;15.60;;;10.50;93.00;;;;;;4972227;28;20188;-87
2022/03/30 03:30:47;;;;;;;21.80;14.20;;;10.50;93.00;;;;;;4979286;28;20192;-87
2022/03/30 03:33:15;;;;;;;20.80;13.67;;;10.50;93.10;;;;;;4980237;28;20184;-85
2022/03/30 03:35:41;;;;;;;25.00;16.07;;;10.50;93.40;;;;;;5002421;28;20188;-86
2022/03/30 03:38:08;;;;;;;20.20;15.57;;;10.60;93.60;;;;;;4969883;28;20484;-86
2022/03/30 03:40:35;;;;;;;21.83;13.90;;;10.50;94.00;;;;;;4979936;28;20860;-86
2022/03/30 03:43:01;;;;;;;27.93;15.70;;;10.60;93.80;;;;;;4977338;28;20454;-86
2022/03/30 03:45:27;;;;;;;23.97;15.60;;;10.60;93.90;;;;;;4977214;28;20431;-85
2022/03/30 03:47:53;;;;;;;22.07;15.50;;;10.70;94.10;;;;;;4984093;28;20491;-86
2022/03/30 03:50:19;;;;;;;18.73;15.13;;;10.70;94.30;;;;;;4984362;28;20863;-86
2022/03/30 03:52:44;;;;;;;21.40;16.60;;;10.70;94.00;;;;;;4987935;28;20469;-86
2022/03/30 03:55:14;;;;;;;22.80;16.67;;;10.70;94.10;;;;;;4975619;28;20953;-86
2022/03/30 03:57:40;;;;;;;23.90;15.30;;;10.70;94.10;;;;;;4971021;28;20254;-85
2022/03/30 04:00:08;;;;;;;22.30;15.80;;;10.70;94.20;;;;;;4975309;28;20443;-85
2022/03/30 04:02:34;;;;;;;22.17;15.13;;;10.70;94.30;;;;;;4972610;28;20945;-86
2022/03/30 04:04:59;;;;;;;21.70;15.30;;;10.60;94.50;;;;;;4977973;28;20447;-85
2022/03/30 04:07:25;;;;;;;22.53;16.30;;;10.60;94.90;;;;;;4985707;28;20183;-87
2022/03/30 04:09:50;;;;;;;24.07;16.73;;;10.50;95.70;;;;;;4977950;28;20287;-87
2022/03/30 04:12:16;;;;;;;32.43;17.07;;;10.50;95.50;;;;;;4975443;28;20187;-87
2022/03/30 04:14:41;;;;;;;23.67;16.57;;;10.50;96.60;;;;;;4985394;28;20234;-86
2022/03/30 04:17:07;;;;;;;22.67;16.37;;;10.40;97.10;;;;;;4974452;28;20243;-85
2022/03/30 04:19:32;;;;;;;28.37;16.43;;;10.30;97.50;;;;;;4976257;28;20231;-87
2022/03/30 04:21:58;;;;;;;23.40;16.90;;;10.30;98.40;;;;;;4990769;28;20188;-86
2022/03/30 04:24:24;;;;;;;23.00;16.33;;;10.30;98.80;;;;;;4977741;28;20232;-87
2022/03/30 04:26:49;;;;;;;24.90;17.07;;;10.20;99.20;;;;;;4982330;28;20219;-87
2022/03/30 04:29:15;;;;;;;23.93;15.70;;;10.10;99.90;;;;;;4976692;28;20242;-87
2022/03/30 04:31:40;;;;;;;26.67;15.73;;;10.20;99.90;;;;;;4969617;28;20241;-87
2022/03/30 04:34:06;;;;;;;21.73;14.83;;;10.20;99.90;;;;;;4966363;28;20268;-87
2022/03/30 04:36:31;;;;;;;22.03;16.57;;;10.10;99.90;;;;;;4963775;28;20192;-86
2022/03/30 04:38:57;;;;;;;22.87;16.90;;;10.10;99.90;;;;;;4969071;28;20254;-87
2022/03/30 04:41:23;;;;;;;22.73;15.50;;;10.10;99.90;;;;;;4970027;28;20184;-87
2022/03/30 04:43:49;;;;;;;25.20;15.97;;;10.00;99.90;;;;;;4963485;28;20307;-87
2022/03/30 04:46:15;;;;;;;27.30;17.70;;;10.00;99.90;;;;;;4982893;28;20442;-87
2022/03/30 04:48:40;;;;;;;19.90;14.97;;;10.00;99.90;;;;;;4970374;28;20452;-86
2022/03/30 04:51:06;;;;;;;23.10;16.20;;;10.00;99.90;;;;;;4968698;28;20192;-87
2022/03/30 04:53:32;;;;;;;22.83;15.80;;;10.00;99.90;;;;;;4960048;28;20546;-87
2022/03/30 04:55:57;;;;;;;23.57;17.07;;;10.00;99.90;;;;;;4974608;28;20442;-87
2022/03/30 04:58:23;;;;;;;24.23;15.33;;;9.90;99.90;;;;;;4969213;28;20228;-87
2022/03/30 05:00:49;;;;;;;19.73;16.53;;;9.90;99.90;;;;;;4980778;28;20192;-87
2022/03/30 05:03:15;;;;;;;25.20;16.80;;;9.80;99.90;;;;;;4979418;28;20177;-87
2022/03/30 05:05:40;;;;;;;21.63;15.70;;;9.80;99.90;;;;;;4984741;28;20199;-87
2022/03/30 05:08:06;;;;;;;20.40;15.53;;;9.80;99.90;;;;;;4979055;28;20871;-87
2022/03/30 05:10:32;;;;;;;21.30;15.90;;;9.80;99.90;;;;;;4972782;28;20280;-87
2022/03/30 05:12:59;;;;;;;28.00;17.10;;;9.80;99.90;;;;;;4958103;28;20502;-87
2022/03/30 05:15:28;;;;;;;20.70;15.20;;;9.80;99.90;;;;;;4982395;28;20467;-86
2022/03/30 05:23:04;;;;;;;23.77;16.77;;;9.80;99.90;;;;;;4978854;28;21338;-84
2022/03/30 05:25:29;;;;;;;23.73;15.90;;;9.70;99.90;;;;;;4984693;28;20505;-83
2022/03/30 05:27:55;;;;;;;24.73;16.20;;;9.70;99.90;;;;;;4986426;28;20198;-84
2022/03/30 05:30:20;;;;;;;22.73;14.37;;;9.70;99.90;;;;;;4994274;28;20720;-84
2022/03/30 05:32:48;;;;;;;26.23;14.40;;;9.60;99.90;;;;;;4976448;28;20503;-83
2022/03/30 05:35:14;;;;;;;20.27;14.80;;;9.60;99.90;;;;;;5000651;28;20193;-83
2022/03/30 05:40:52;;;;;;;;;;;;;;;;;;;;;
2022/03/30 06:20:12;;;;;;;22.30;14.03;;;9.50;99.90;;;;;;5043570;28;20470;-96
2022/03/30 08:19:29;;;;;;;20.73;13.47;;;9.60;99.90;;;;;;4973455;28;20491;-91
2022/03/30 08:24:46;;;;;;;22.03;13.60;;;9.70;99.90;;;;;;4969374;28;20464;-90
2022/03/30 08:27:25;;;;;;;27.80;14.17;;;9.60;99.90;;;;;;4986444;28;20517;-88
2022/03/30 08:29:52;;;;;;;23.67;14.10;;;9.60;99.90;;;;;;4963402;28;20469;-88
2022/03/30 08:32:18;;;;;;;20.83;14.07;;;9.70;99.90;;;;;;4984124;28;21468;-88
2022/03/30 08:34:45;;;;;;;20.37;12.73;;;9.70;99.90;;;;;;4966345;28;20441;-89
2022/03/30 08:37:12;;;;;;;21.40;13.40;;;9.70;99.90;;;;;;4985713;28;20543;-89
2022/03/30 08:39:38;;;;;;;18.53;13.13;;;9.80;99.90;;;;;;4967458;28;20860;-90
2022/03/30 08:42:05;;;;;;;21.10;13.23;;;9.70;99.90;;;;;;4974154;28;20452;-91
2022/03/30 08:44:33;;;;;;;19.63;13.03;;;9.80;99.90;;;;;;4974109;28;20452;-87
2022/03/30 08:46:59;;;;;;;21.77;13.57;;;9.90;99.90;;;;;;4975371;28;20456;-89
2022/03/30 08:49:26;;;;;;;23.53;13.97;;;10.00;99.90;;;;;;4961699;28;20803;-89
2022/03/30 08:51:53;;;;;;;23.50;13.07;;;9.80;99.90;;;;;;4964164;28;20460;-89
2022/03/30 08:54:22;;;;;;;23.10;12.47;;;9.80;99.90;;;;;;4977392;28;20958;-90
2022/03/30 08:56:48;;;;;;;26.53;14.07;;;9.80;99.90;;;;;;4954096;28;20533;-90
2022/03/30 08:59:20;;;;;;;21.17;13.67;;;10.00;99.90;;;;;;4958697;28;20585;-90
2022/03/30 09:01:46;;;;;;;22.03;13.90;;;10.10;99.90;;;;;;4974763;28;20284;-89
2022/03/30 09:04:14;;;;;;;22.60;14.50;;;10.30;99.90;;;;;;4965021;28;20452;-90
2022/03/30 09:06:41;;;;;;;23.80;15.10;;;10.30;99.90;;;;;;4973246;28;21026;-89
2022/03/30 09:09:07;;;;;;;24.67;14.97;;;10.40;99.90;;;;;;4975667;28;21169;-90
2022/03/30 09:11:40;;;;;;;21.93;13.27;;;10.50;99.90;;;;;;4962016;28;20444;-90
2022/03/30 09:14:07;;;;;;;20.90;13.00;;;10.20;99.90;;;;;;4968880;28;20454;-90
2022/03/30 09:16:41;;;;;;;21.57;13.57;;;10.00;99.90;;;;;;4977951;28;20455;-89
2022/03/30 09:19:09;;;;;;;23.87;12.90;;;10.10;99.90;;;;;;4975537;28;20500;-90
2022/03/30 09:21:48;;;;;;;22.03;11.83;;;10.30;99.90;;;;;;4972966;28;20441;-90
2022/03/30 09:24:25;;;;;;;19.70;11.70;;;10.40;99.90;;;;;;4956152;28;20495;-89
2022/03/30 09:26:52;;;;;;;19.87;11.73;;;10.40;99.90;;;;;;4962683;28;20803;-89
2022/03/30 09:29:20;;;;;;;24.77;12.80;;;10.50;99.90;;;;;;4961899;28;20810;-89
2022/03/30 09:31:47;;;;;;;20.50;11.60;;;10.40;99.90;;;;;;4977360;28;20840;-90
2022/03/30 09:34:13;;;;;;;25.97;12.50;;;10.50;99.90;;;;;;4961827;28;20434;-89
2022/03/30 09:36:40;;;;;;;18.87;12.50;;;10.60;99.90;;;;;;4960282;28;20452;-89
2022/03/30 09:39:09;;;;;;;16.83;12.90;;;10.60;99.90;;;;;;4954245;28;20312;-89
2022/03/30 09:41:45;;;;;;;27.13;12.80;;;10.70;99.90;;;;;;4975278;28;20539;-89
2022/03/30 09:44:11;;;;;;;22.50;13.70;;;10.70;99.90;;;;;;4971393;28;20448;-89
2022/03/30 09:46:51;;;;;;;21.90;12.87;;;10.60;99.90;;;;;;4962672;28;20463;-89
2022/03/30 09:49:43;;;;;;;20.90;12.20;;;10.60;99.90;;;;;;4973908;28;20190;-89
2022/03/30 09:52:19;;;;;;;25.03;11.73;;;10.70;99.90;;;;;;4975495;28;20441;-89
2022/03/30 09:54:49;;;;;;;22.50;11.80;;;10.80;99.90;;;;;;4958358;28;20452;-90
2022/03/30 09:57:25;;;;;;;17.40;12.10;;;10.90;99.90;;;;;;4971509;28;20441;-90
2022/03/30 10:00:10;;;;;;;23.43;11.73;;;10.90;99.90;;;;;;4958052;28;20580;-89
2022/03/30 10:02:41;;;;;;;21.87;12.30;;;10.90;99.90;;;;;;4960415;28;20855;-89
2022/03/30 10:05:12;;;;;;;18.13;11.50;;;10.80;99.90;;;;;;4958896;28;20456;-89
2022/03/30 10:07:39;;;;;;;24.40;11.87;;;10.90;99.90;;;;;;4958886;28;20496;-89
2022/03/30 10:10:07;;;;;;;21.93;12.20;;;11.00;99.90;;;;;;4962369;28;20575;-89
2022/03/30 10:12:46;;;;;;;18.30;13.30;;;11.00;99.90;;;;;;4958948;28;20446;-89
2022/03/30 10:15:13;;;;;;;25.57;13.50;;;11.00;99.90;;;;;;4960337;28;20460;-89
2022/03/30 10:17:39;;;;;;;22.27;13.37;;;11.00;99.90;;;;;;4951457;28;20990;-90
2022/03/30 10:20:07;;;;;;;20.67;13.67;;;10.90;99.90;;;;;;4952979;28;20452;-90
2022/03/30 10:23:06;;;;;;;23.00;14.17;;;10.80;99.90;;;;;;4984163;28;20450;-90
2022/03/30 10:26:06;;;;;;;21.60;13.47;;;10.80;99.90;;;;;;4980411;28;20850;-91
2022/03/30 10:28:43;;;;;;;27.77;12.53;;;11.00;99.90;;;;;;4956836;28;20803;-91
2022/03/30 10:31:09;;;;;;;17.40;12.37;;;11.20;99.90;;;;;;4977644;28;20873;-90
2022/03/30 10:33:38;;;;;;;23.40;13.30;;;11.40;99.90;;;;;;4971034;28;20955;-90
2022/03/30 10:36:26;;;;;;;20.80;13.83;;;11.70;99.90;;;;;;4963650;28;20832;-89
2022/03/30 10:39:16;;;;;;;30.03;13.87;;;11.70;99.90;;;;;;4971175;28;20577;-90
2022/03/30 10:42:09;;;;;;;23.90;13.77;;;11.80;99.90;;;;;;4974381;28;20435;-90
2022/03/30 10:44:36;;;;;;;23.87;14.20;;;11.70;99.90;;;;;;4960430;28;20442;-89
2022/03/30 10:47:16;;;;;;;23.20;13.47;;;11.70;99.90;;;;;;4975650;28;20492;-88
2022/03/30 10:49:45;;;;;;;19.60;13.40;;;11.60;99.90;;;;;;4973966;28;20449;-90
2022/03/30 10:52:37;;;;;;;25.17;15.33;;;11.70;99.90;;;;;;4961800;28;20524;-89
2022/03/30 10:55:12;;;;;;;30.77;15.47;;;11.80;99.90;;;;;;4974520;28;20438;-90
2022/03/30 10:58:04;;;;;;;24.83;14.50;;;12.00;99.90;;;;;;4974247;28;20476;-89
2022/03/30 11:00:38;;;;;;;25.77;15.50;;;11.90;99.90;;;;;;4974076;28;20441;-88
2022/03/30 11:03:20;;;;;;;26.03;15.20;;;11.80;99.90;;;;;;4964171;28;20430;-89
2022/03/30 11:06:05;;;;;;;23.60;15.70;;;11.70;99.90;;;;;;4975771;28;20452;-89
2022/03/30 11:09:14;;;;;;;25.67;14.50;;;11.80;99.90;;;;;;4979079;28;20465;-88
2022/03/30 11:11:46;;;;;;;24.43;14.30;;;12.10;99.90;;;;;;4970676;28;20453;-90
2022/03/30 11:14:47;;;;;;;21.23;14.17;;;12.40;99.90;;;;;;4968910;28;20462;-89
2022/03/30 11:17:15;;;;;;;20.50;14.90;;;12.80;99.90;;;;;;4954222;28;20461;-90
2022/03/30 11:20:03;;;;;;;20.37;14.60;;;13.60;99.90;;;;;;4953641;28;20970;-89
2022/03/30 11:22:42;;;;;;;25.13;14.30;;;13.70;99.90;;;;;;4976393;28;20437;-88
2022/03/30 11:25:18;;;;;;;19.30;14.77;;;13.80;99.90;;;;;;4971796;28;20481;-90
2022/03/30 11:28:03;;;;;;;22.87;13.97;;;13.90;99.90;;;;;;4973041;28;20608;-90
2022/03/30 11:30:31;;;;;;;21.43;15.00;;;13.90;99.90;;;;;;4975041;28;20441;-90
2022/03/30 11:33:22;;;;;;;21.57;13.73;;;13.70;99.90;;;;;;4956111;28;20851;-90
2022/03/30 11:35:49;;;;;;;15.70;13.77;;;13.50;99.90;;;;;;4959354;28;20488;-90
2022/03/30 11:38:25;;;;;;;22.60;13.33;;;13.20;99.90;;;;;;4967627;28;20477;-89
2022/03/30 11:41:06;;;;;;;19.70;12.57;;;13.10;99.90;;;;;;4972113;28;20448;-89
2022/03/30 11:46:27;;;;;;;17.17;12.90;;;12.50;99.90;;;;;;4957084;28;20448;-90
2022/03/30 11:48:58;;;;;;;22.87;12.00;;;12.50;99.90;;;;;;4958452;28;20510;-88
2022/03/30 11:51:27;;;;;;;20.10;13.10;;;12.50;99.90;;;;;;4973313;28;20445;-89
2022/03/30 11:54:13;;;;;;;19.43;12.40;;;12.30;99.90;;;;;;4956364;28;20996;-89
2022/03/30 11:56:40;;;;;;;14.53;12.27;;;12.40;99.90;;;;;;4973936;28;20440;-89
2022/03/30 11:59:06;;;;;;;27.93;13.70;;;12.50;99.90;;;;;;4955294;28;20481;-89
2022/03/30 12:01:35;;;;;;;19.67;11.93;;;12.50;99.90;;;;;;4967617;28;20438;-90
2022/03/30 12:04:01;;;;;;;15.13;10.27;;;12.60;99.90;;;;;;4967422;28;20474;-89
2022/03/30 12:06:26;;;;;;;15.73;10.70;;;12.60;99.90;;;;;;4959506;28;20422;-90
2022/03/30 12:08:53;;;;;;;13.93;9.40;;;12.50;99.90;;;;;;4957782;28;20445;-94
2022/03/30 12:11:21;;;;;;;13.93;8.90;;;12.50;99.90;;;;;;4961853;28;20273;-91
2022/03/30 12:13:52;;;;;;;14.60;9.37;;;12.40;99.90;;;;;;4963285;28;20461;-93
2022/03/30 12:16:20;;;;;;;13.70;8.63;;;12.40;99.90;;;;;;4982705;28;20930;-91
2022/03/30 12:19:01;;;;;;;13.27;9.30;;;12.60;99.90;;;;;;4969495;28;20576;-91
2022/03/30 12:21:30;;;;;;;16.63;9.80;;;12.70;99.90;;;;;;4956909;28;20449;-90
2022/03/30 12:24:03;;;;;;;12.53;8.73;;;12.60;99.90;;;;;;4982550;28;20469;-95
2022/03/30 12:26:29;;;;;;;14.33;8.80;;;12.40;99.90;;;;;;4980226;28;20446;-96
2022/03/30 12:29:04;;;;;;;11.07;8.70;;;12.40;99.90;;;;;;4980967;28;20648;-95
2022/03/30 12:31:34;;;;;;;10.90;7.67;;;12.40;99.90;;;;;;4976372;28;20441;-94
2022/03/30 12:34:21;;;;;;;12.27;9.50;;;12.50;99.90;;;;;;4990947;28;20425;-95
2022/03/30 12:36:58;;;;;;;18.03;11.53;;;12.30;99.90;;;;;;4990530;28;20469;-94
2022/03/30 12:39:40;;;;;;;19.47;13.17;;;12.10;99.90;;;;;;4967015;28;20552;-93
2022/03/30 12:42:12;;;;;;;17.73;11.80;;;12.10;99.90;;;;;;4982587;28;20491;-93
2022/03/30 12:44:50;;;;;;;17.67;14.13;;;12.20;99.90;;;;;;4967206;28;20449;-94
2022/03/30 12:47:32;;;;;;;20.27;12.90;;;12.50;99.90;;;;;;4966031;28;20460;-93
2022/03/30 12:50:03;;;;;;;19.33;13.77;;;12.80;99.90;;;;;;4964661;28;20958;-95
2022/03/30 12:52:41;;;;;;;25.50;15.87;;;13.50;99.90;;;;;;4981552;28;20441;-93
2022/03/30 12:55:32;;;;;;;18.90;13.87;;;13.90;99.90;;;;;;4978503;28;20453;-93
2022/03/30 12:58:14;;;;;;;20.50;15.50;;;14.20;99.90;;;;;;4981618;28;20465;-93
2022/03/30 13:00:43;;;;;;;21.67;16.00;;;13.70;99.90;;;;;;4974845;28;20503;-93
2022/03/30 13:03:43;;;;;;;26.57;17.53;;;13.60;99.90;;;;;;4971861;28;20445;-94
2022/03/30 13:06:18;;;;;;;23.40;15.03;;;13.40;99.90;;;;;;4917138;28;20448;-93
2022/03/30 13:09:08;;;;;;;22.73;16.20;;;13.70;99.90;;;;;;4969075;28;20441;-92
2022/03/30 13:11:49;;;;;;;24.53;15.50;;;14.10;99.90;;;;;;4985333;28;20452;-94
2022/03/30 13:14:18;;;;;;;17.73;14.83;;;14.00;99.90;;;;;;4980710;28;20453;-96
2022/03/30 13:17:10;;;;;;;18.83;15.60;;;14.20;99.90;;;;;;4989779;28;20445;-94
2022/03/30 13:19:37;;;;;;;17.40;14.17;;;13.70;99.90;;;;;;4985067;28;20462;-94
2022/03/30 13:22:06;;;;;;;19.70;15.33;;;13.20;99.90;;;;;;4992313;28;21041;-96
2022/03/30 13:24:32;;;;;;;21.67;15.70;;;12.60;99.90;;;;;;4979389;28;20440;-94
2022/03/30 13:27:03;;;;;;;22.87;16.70;;;12.20;99.90;;;;;;4965317;28;20440;-94
2022/03/30 13:29:30;;;;;;;18.33;14.10;;;11.90;99.90;;;;;;4967434;28;20183;-94
2022/03/30 13:31:55;;;;;;;19.53;15.27;;;11.60;99.90;;;;;;4959493;28;20457;-92
2022/03/30 13:34:24;;;;;;;19.03;13.60;;;11.70;99.90;;;;;;4953101;28;20486;-93
2022/03/30 13:36:50;;;;;;;17.00;12.73;;;12.10;99.90;;;;;;4968697;28;20488;-94
2022/03/30 13:39:17;;;;;;;14.80;12.80;;;12.70;99.90;;;;;;4969136;28;20462;-94
2022/03/30 13:41:44;;;;;;;12.43;10.70;;;12.50;99.90;;;;;;4971450;28;20437;-95
2022/03/30 13:44:24;;;;;;;13.37;10.17;;;12.30;99.90;;;;;;4978481;28;20953;-92
2022/03/30 13:46:50;;;;;;;10.67;9.57;;;11.80;99.90;;;;;;4984707;28;20893;-95
2022/03/30 13:49:16;;;;;;;12.50;8.67;;;11.80;99.90;;;;;;4966041;28;20478;-96
2022/03/30 13:51:43;;;;;;;8.90;8.07;;;12.10;99.90;;;;;;4973667;28;21051;-96
2022/03/30 13:54:09;;;;;;;9.83;8.93;;;12.20;99.90;;;;;;4979073;28;20453;-95
2022/03/30 13:56:34;;;;;;;8.10;7.40;;;12.00;99.90;;;;;;4959502;28;20442;-94
2022/03/30 13:59:00;;;;;;;8.10;7.30;;;12.00;99.90;;;;;;4960114;28;20500;-96
2022/03/30 14:01:28;;;;;;;7.37;6.53;;;11.80;99.90;;;;;;4985609;28;20186;-95
2022/03/30 14:03:54;;;;;;;6.90;6.20;;;11.90;99.90;;;;;;4982472;28;20987;-96
2022/03/30 14:06:20;;;;;;;7.10;6.40;;;12.00;99.90;;;;;;4971049;28;20482;-96
2022/03/30 14:08:47;;;;;;;6.40;5.90;;;12.10;99.90;;;;;;4986713;28;20927;-95
2022/03/30 14:11:13;;;;;;;6.10;5.60;;;12.10;99.90;;;;;;4975746;28;20448;-95
2022/03/30 14:13:39;;;;;;;7.17;6.57;;;12.20;99.90;;;;;;4978401;28;20436;-95
2022/03/30 14:16:05;;;;;;;6.50;5.90;;;12.20;99.90;;;;;;4981457;28;20442;-95
2022/03/30 14:18:31;;;;;;;6.00;5.60;;;12.20;99.90;;;;;;4979324;28;20485;-95
2022/03/30 14:20:57;;;;;;;6.40;5.90;;;12.10;99.90;;;;;;4967532;28;20464;-96
2022/03/30 14:23:23;;;;;;;6.00;5.40;;;11.80;99.90;;;;;;4980823;28;20191;-94
2022/03/30 14:25:49;;;;;;;6.80;6.20;;;11.60;99.90;;;;;;4977982;28;20542;-95
2022/03/30 14:28:24;;;;;;;6.03;5.53;;;11.40;99.90;;;;;;4970175;28;20772;-95
2022/03/30 14:30:51;;;;;;;6.33;5.73;;;11.50;99.90;;;;;;4966760;28;20513;-95
2022/03/30 14:33:16;;;;;;;6.00;5.50;;;11.40;99.90;;;;;;4962776;28;20441;-94
2022/03/30 14:35:43;;;;;;;5.47;5.07;;;11.30;99.90;;;;;;4968223;28;20476;-94
2022/03/30 14:40:57;;;;;;;6.03;5.53;;;10.90;99.90;;;;;;5029933;23;20505;-94
2022/03/30 14:43:24;;;;;;;6.03;5.43;;;10.90;99.90;;;;;;5002264;28;20575;-95
2022/03/30 14:45:52;;;;;;;6.03;5.53;;;10.90;99.90;;;;;;5015207;28;20447;-93
2022/03/30 14:48:30;;;;;;;9.10;8.30;;;11.00;99.90;;;;;;4993626;28;20436;-95
2022/03/30 14:50:55;;;;;;;7.00;6.40;;;11.20;99.90;;;;;;5002283;28;20537;-94
2022/03/30 14:53:21;;;;;;;5.90;5.40;;;11.30;99.90;;;;;;5021120;28;20608;-96
2022/03/30 14:55:47;;;;;;;8.07;7.27;;;11.40;99.90;;;;;;4987181;28;20292;-94
2022/03/30 14:58:13;;;;;;;7.60;7.00;;;11.30;99.90;;;;;;5002691;28;20604;-96
2022/03/30 15:00:38;;;;;;;7.50;6.80;;;11.30;99.90;;;;;;4994439;28;20204;-96
2022/03/30 15:03:07;;;;;;;8.10;7.20;;;11.10;99.90;;;;;;4985875;28;20439;-95
2022/03/30 15:05:32;;;;;;;7.93;7.13;;;11.00;99.90;;;;;;4988020;28;20199;-95
2022/03/30 15:07:58;;;;;;;7.80;7.03;;;11.10;99.90;;;;;;4990079;28;20438;-96
2022/03/30 15:10:24;;;;;;;7.23;6.43;;;11.60;99.90;;;;;;4985145;28;20173;-96
2022/03/30 15:12:50;;;;;;;7.23;6.63;;;12.40;99.90;;;;;;4980026;28;20185;-96
2022/03/30 15:15:16;;;;;;;7.27;6.53;;;13.10;99.90;;;;;;4987469;28;20440;-96
2022/03/30 15:17:41;;;;;;;8.97;8.07;;;14.00;99.90;;;;;;4983629;28;20239;-95
2022/03/30 15:20:12;;;;;;;11.60;10.10;;;14.30;99.90;;;;;;4975091;28;20268;-96
2022/03/30 15:22:46;;;;;;;15.77;12.57;;;13.40;99.90;;;;;;4988272;28;20208;-93
2022/03/30 15:25:13;;;;;;;20.50;16.77;;;12.90;99.90;;;;;;4982913;28;20515;-92
2022/03/30 15:27:39;;;;;;;9.63;8.67;;;12.90;99.90;;;;;;4989396;28;20451;-95
2022/03/30 15:30:07;;;;;;;7.20;6.50;;;12.60;99.90;;;;;;4990426;28;20436;-94
2022/03/30 15:32:33;;;;;;;7.23;6.63;;;12.40;99.90;;;;;;4996246;28;20425;-94
2022/03/30 15:34:59;;;;;;;7.77;7.07;;;12.40;99.90;;;;;;4993569;28;20429;-95
2022/03/30 15:37:24;;;;;;;6.70;6.03;;;12.50;99.90;;;;;;4995357;28;20798;-94